sensor_id;sensor_type;location;lat;lon;timestamp;temperature;humidity
55648;DHT22;45266;48.756;9.246;2022-09-29T00:00:54;6.50;99.90
55648;DHT22;45266;48.756;9.246;2022-09-29T00:01:56;6.50;99.90
55648;DHT22;45266;48.756;9.246;2022-09-29T00:02:58;6.50;99.90
55648;DHT22;45266;48.756;9.246;2022-09-29T00:04:00;6.50;99.90
55648;DHT22;45266;48.756;9.246;2022-09-29T00:05:02;6.50;99.90
55648;DHT22;45266;48.756;9.246;2022-09-29T00:06:11;6.50;99.90
55648;DHT22;45266;48.756;9.246;2022-09-29T00:07:13;6.50;99.90
55648;DHT22;45266;48.756;9.246;2022-09-29T00:08:15;6.50;99.90
55648;DHT22;45266;48.756;9.246;2022-09-29T00:09:17;6.60;99.90
55648;DHT22;45266;48.756;9.246;2022-09-29T00:10:19;6.60;99.90
55648;DHT22;45266;48.756;9.246;2022-09-29T00:11:21;6.60;99.90
55648;DHT22;45266;48.756;9.246;2022-09-29T00:12:23;6.60;99.90
55648;DHT22;45266;48.756;9.246;2022-09-29T00:13:25;6.60;99.90
55648;DHT22;45266;48.756;9.246;2022-09-29T00:14:27;6.60;99.90
55648;DHT22;45266;48.756;9.246;2022-09-29T00:15:29;6.60;99.90
55648;DHT22;45266;48.756;9.246;2022-09-29T00:16:30;6.60;99.90
55648;DHT22;45266;48.756;9.246;2022-09-29T00:17:32;6.60;99.90
55648;DHT22;45266;48.756;9.246;2022-09-29T00:18:34;6.60;99.90
55648;DHT22;45266;48.756;9.246;2022-09-29T00:19:36;6.60;99.90
55648;DHT22;45266;48.756;9.246;2022-09-29T00:20:38;6.60;99.90
55648;DHT22;45266;48.756;9.246;2022-09-29T00:21:40;6.60;99.90
55648;DHT22;45266;48.756;9.246;2022-09-29T00:22:42;6.60;99.90
55648;DHT22;45266;48.756;9.246;2022-09-29T00:23:44;6.60;99.90
55648;DHT22;45266;48.756;9.246;2022-09-29T00:24:46;6.60;99.90
55648;DHT22;45266;48.756;9.246;2022-09-29T00:26:01;6.50;99.90
55648;DHT22;45266;48.756;9.246;2022-09-29T00:27:03;6.60;99.90
55648;DHT22;45266;48.756;9.246;2022-09-29T00:28:05;6.60;99.90
55648;DHT22;45266;48.756;9.246;2022-09-29T00:29:09;6.60;99.90
55648;DHT22;45266;48.756;9.246;2022-09-29T00:30:11;6.70;99.90
55648;DHT22;45266;48.756;9.246;2022-09-29T00:31:13;6.70;99.90
55648;DHT22;45266;48.756;9.246;2022-09-29T00:32:15;6.70;99.90
55648;DHT22;45266;48.756;9.246;2022-09-29T00:33:17;6.70;99.90
55648;DHT22;45266;48.756;9.246;2022-09-29T00:34:19;6.70;99.90
55648;DHT22;45266;48.756;9.246;2022-09-29T00:35:21;6.70;99.90
55648;DHT22;45266;48.756;9.246;2022-09-29T00:36:23;6.70;99.90
55648;DHT22;45266;48.756;9.246;2022-09-29T00:37:25;6.70;99.90
55648;DHT22;45266;48.756;9.246;2022-09-29T00:38:27;6.70;99.90
55648;DHT22;45266;48.756;9.246;2022-09-29T00:39:29;6.70;99.90
55648;DHT22;45266;48.756;9.246;2022-09-29T00:40:31;6.70;99.90
55648;DHT22;45266;48.756;9.246;2022-09-29T00:41:37;6.70;99.90
55648;DHT22;45266;48.756;9.246;2022-09-29T00:42:39;6.70;99.90
55648;DHT22;45266;48.756;9.246;2022-09-29T00:45:15;6.70;99.90
55648;DHT22;45266;48.756;9.246;2022-09-29T00:47:45;6.70;99.90
55648;DHT22;45266;48.756;9.246;2022-09-29T00:48:47;6.70;99.90
55648;DHT22;45266;48.756;9.246;2022-09-29T00:50:08;6.80;99.90
55648;DHT22;45266;48.756;9.246;2022-09-29T00:51:14;6.80;99.90
55648;DHT22;45266;48.756;9.246;2022-09-29T00:52:33;6.70;99.90
55648;DHT22;45266;48.756;9.246;2022-09-29T00:53:35;6.70;99.90
55648;DHT22;45266;48.756;9.246;2022-09-29T00:54:43;6.70;99.90
55648;DHT22;45266;48.756;9.246;2022-09-29T00:55:59;6.70;99.90
55648;DHT22;45266;48.756;9.246;2022-09-29T00:57:03;6.70;99.90
55648;DHT22;45266;48.756;9.246;2022-09-29T00:58:17;6.80;99.90
55648;DHT22;45266;48.756;9.246;2022-09-29T00:59:30;6.70;99.90
55648;DHT22;45266;48.756;9.246;2022-09-29T01:00:33;6.80;99.90
55648;DHT22;45266;48.756;9.246;2022-09-29T01:01:35;6.80;99.90
55648;DHT22;45266;48.756;9.246;2022-09-29T01:02:55;6.80;99.90
55648;DHT22;45266;48.756;9.246;2022-09-29T01:04:12;6.80;99.90
55648;DHT22;45266;48.756;9.246;2022-09-29T01:05:20;6.80;99.90
55648;DHT22;45266;48.756;9.246;2022-09-29T01:06:39;6.80;99.90
55648;DHT22;45266;48.756;9.246;2022-09-29T01:07:42;6.80;99.90
55648;DHT22;45266;48.756;9.246;2022-09-29T01:09:02;6.80;99.90
55648;DHT22;45266;48.756;9.246;2022-09-29T01:10:04;6.80;99.90
55648;DHT22;45266;48.756;9.246;2022-09-29T01:11:09;6.80;99.90
55648;DHT22;45266;48.756;9.246;2022-09-29T01:12:11;6.80;99.90
55648;DHT22;45266;48.756;9.246;2022-09-29T01:13:13;6.80;99.90
55648;DHT22;45266;48.756;9.246;2022-09-29T01:14:15;6.80;99.90
55648;DHT22;45266;48.756;9.246;2022-09-29T01:15:19;6.80;99.90
55648;DHT22;45266;48.756;9.246;2022-09-29T01:16:21;6.80;99.90
55648;DHT22;45266;48.756;9.246;2022-09-29T01:17:23;6.80;99.90
55648;DHT22;45266;48.756;9.246;2022-09-29T01:18:25;6.80;99.90
55648;DHT22;45266;48.756;9.246;2022-09-29T01:23:15;6.80;99.90
55648;DHT22;45266;48.756;9.246;2022-09-29T01:24:43;6.80;99.90
55648;DHT22;45266;48.756;9.246;2022-09-29T01:29:59;6.90;99.90
55648;DHT22;45266;48.756;9.246;2022-09-29T01:31:17;6.90;99.90
55648;DHT22;45266;48.756;9.246;2022-09-29T01:32:38;6.90;99.90
55648;DHT22;45266;48.756;9.246;2022-09-29T01:34:24;6.90;99.90
55648;DHT22;45266;48.756;9.246;2022-09-29T01:35:38;6.90;99.90
55648;DHT22;45266;48.756;9.246;2022-09-29T01:36:47;6.90;99.90
55648;DHT22;45266;48.756;9.246;2022-09-29T01:38:13;6.90;99.90
55648;DHT22;45266;48.756;9.246;2022-09-29T01:39:26;6.90;99.90
55648;DHT22;45266;48.756;9.246;2022-09-29T01:42:02;6.90;99.90
55648;DHT22;45266;48.756;9.246;2022-09-29T01:43:30;6.90;99.90
55648;DHT22;45266;48.756;9.246;2022-09-29T01:44:38;7.00;99.90
55648;DHT22;45266;48.756;9.246;2022-09-29T01:45:46;6.90;99.90
55648;DHT22;45266;48.756;9.246;2022-09-29T01:46:56;6.90;99.90
55648;DHT22;45266;48.756;9.246;2022-09-29T01:48:04;6.90;99.90
55648;DHT22;45266;48.756;9.246;2022-09-29T01:49:07;6.90;99.90
55648;DHT22;45266;48.756;9.246;2022-09-29T01:50:14;6.90;99.90
55648;DHT22;45266;48.756;9.246;2022-09-29T01:51:26;6.90;99.90
55648;DHT22;45266;48.756;9.246;2022-09-29T01:52:33;7.00;99.90
55648;DHT22;45266;48.756;9.246;2022-09-29T01:53:43;6.90;99.90
55648;DHT22;45266;48.756;9.246;2022-09-29T01:54:53;6.90;99.90
55648;DHT22;45266;48.756;9.246;2022-09-29T01:56:02;7.00;99.90
55648;DHT22;45266;48.756;9.246;2022-09-29T01:57:19;7.00;99.90
55648;DHT22;45266;48.756;9.246;2022-09-29T01:58:32;7.00;99.90
55648;DHT22;45266;48.756;9.246;2022-09-29T02:00:00;7.00;99.90
55648;DHT22;45266;48.756;9.246;2022-09-29T02:01:03;7.00;99.90
55648;DHT22;45266;48.756;9.246;2022-09-29T02:02:14;7.00;99.90
55648;DHT22;45266;48.756;9.246;2022-09-29T02:04:32;7.00;99.90
55648;DHT22;45266;48.756;9.246;2022-09-29T02:06:48;7.00;99.90
55648;DHT22;45266;48.756;9.246;2022-09-29T02:07:53;7.00;99.90
55648;DHT22;45266;48.756;9.246;2022-09-29T02:08:58;7.00;99.90
55648;DHT22;45266;48.756;9.246;2022-09-29T02:10:09;7.00;99.90
55648;DHT22;45266;48.756;9.246;2022-09-29T02:11:12;7.00;99.90
55648;DHT22;45266;48.756;9.246;2022-09-29T02:12:19;7.00;99.90
55648;DHT22;45266;48.756;9.246;2022-09-29T02:13:23;7.00;99.90
55648;DHT22;45266;48.756;9.246;2022-09-29T02:14:29;7.00;99.90
55648;DHT22;45266;48.756;9.246;2022-09-29T02:15:34;7.00;99.90
55648;DHT22;45266;48.756;9.246;2022-09-29T02:16:57;7.00;99.90
55648;DHT22;45266;48.756;9.246;2022-09-29T02:18:07;7.00;99.90
55648;DHT22;45266;48.756;9.246;2022-09-29T02:19:32;7.00;99.90
55648;DHT22;45266;48.756;9.246;2022-09-29T02:20:35;7.10;99.90
55648;DHT22;45266;48.756;9.246;2022-09-29T02:21:36;7.10;99.90
55648;DHT22;45266;48.756;9.246;2022-09-29T02:22:39;7.10;99.90
55648;DHT22;45266;48.756;9.246;2022-09-29T02:23:41;7.10;99.90
55648;DHT22;45266;48.756;9.246;2022-09-29T02:24:43;7.10;99.90
55648;DHT22;45266;48.756;9.246;2022-09-29T02:25:47;7.20;99.90
55648;DHT22;45266;48.756;9.246;2022-09-29T02:26:51;7.20;99.90
55648;DHT22;45266;48.756;9.246;2022-09-29T02:27:52;7.20;99.90
55648;DHT22;45266;48.756;9.246;2022-09-29T02:28:54;7.20;99.90
55648;DHT22;45266;48.756;9.246;2022-09-29T02:29:56;7.20;99.90
55648;DHT22;45266;48.756;9.246;2022-09-29T02:30:59;7.20;99.90
55648;DHT22;45266;48.756;9.246;2022-09-29T02:32:03;7.20;99.90
55648;DHT22;45266;48.756;9.246;2022-09-29T02:33:23;7.20;99.90
55648;DHT22;45266;48.756;9.246;2022-09-29T02:34:26;7.20;99.90
55648;DHT22;45266;48.756;9.246;2022-09-29T02:35:49;7.20;99.90
55648;DHT22;45266;48.756;9.246;2022-09-29T02:37:00;7.20;99.90
55648;DHT22;45266;48.756;9.246;2022-09-29T02:38:05;7.30;99.90
55648;DHT22;45266;48.756;9.246;2022-09-29T02:39:19;7.30;99.90
55648;DHT22;45266;48.756;9.246;2022-09-29T02:40:45;7.30;99.90
55648;DHT22;45266;48.756;9.246;2022-09-29T02:43:19;7.30;99.90
55648;DHT22;45266;48.756;9.246;2022-09-29T02:48:42;7.30;99.90
55648;DHT22;45266;48.756;9.246;2022-09-29T02:53:35;7.30;99.90
55648;DHT22;45266;48.756;9.246;2022-09-29T02:55:23;7.40;99.90
55648;DHT22;45266;48.756;9.246;2022-09-29T02:57:58;7.40;99.90
55648;DHT22;45266;48.756;9.246;2022-09-29T02:59:41;7.40;99.90
55648;DHT22;45266;48.756;9.246;2022-09-29T03:00:36;7.40;99.90
55648;DHT22;45266;48.756;9.246;2022-09-29T03:01:50;7.30;99.90
55648;DHT22;45266;48.756;9.246;2022-09-29T03:02:52;7.30;99.90
55648;DHT22;45266;48.756;9.246;2022-09-29T03:03:54;7.30;99.90
55648;DHT22;45266;48.756;9.246;2022-09-29T03:04:56;7.30;99.90
55648;DHT22;45266;48.756;9.246;2022-09-29T03:05:58;7.30;99.90
55648;DHT22;45266;48.756;9.246;2022-09-29T03:07:00;7.40;99.90
55648;DHT22;45266;48.756;9.246;2022-09-29T03:08:02;7.40;99.90
55648;DHT22;45266;48.756;9.246;2022-09-29T03:09:03;7.30;99.90
55648;DHT22;45266;48.756;9.246;2022-09-29T03:10:06;7.40;99.90
55648;DHT22;45266;48.756;9.246;2022-09-29T03:11:08;7.40;99.90
55648;DHT22;45266;48.756;9.246;2022-09-29T03:12:10;7.40;99.90
55648;DHT22;45266;48.756;9.246;2022-09-29T03:13:12;7.40;99.90
55648;DHT22;45266;48.756;9.246;2022-09-29T03:14:14;7.40;99.90
55648;DHT22;45266;48.756;9.246;2022-09-29T03:15:16;7.30;99.90
55648;DHT22;45266;48.756;9.246;2022-09-29T03:16:18;7.40;99.90
55648;DHT22;45266;48.756;9.246;2022-09-29T03:17:20;7.40;99.90
55648;DHT22;45266;48.756;9.246;2022-09-29T03:18:22;7.30;99.90
55648;DHT22;45266;48.756;9.246;2022-09-29T03:19:24;7.40;99.90
55648;DHT22;45266;48.756;9.246;2022-09-29T03:20:26;7.40;99.90
55648;DHT22;45266;48.756;9.246;2022-09-29T03:21:28;7.40;99.90
55648;DHT22;45266;48.756;9.246;2022-09-29T03:22:30;7.40;99.90
55648;DHT22;45266;48.756;9.246;2022-09-29T03:23:32;7.30;99.90
55648;DHT22;45266;48.756;9.246;2022-09-29T03:24:33;7.40;99.90
55648;DHT22;45266;48.756;9.246;2022-09-29T03:25:36;7.40;99.90
55648;DHT22;45266;48.756;9.246;2022-09-29T03:26:38;7.30;99.90
55648;DHT22;45266;48.756;9.246;2022-09-29T03:27:40;7.30;99.90
55648;DHT22;45266;48.756;9.246;2022-09-29T03:28:42;7.30;99.90
55648;DHT22;45266;48.756;9.246;2022-09-29T03:29:44;7.30;99.90
55648;DHT22;45266;48.756;9.246;2022-09-29T03:30:45;7.30;99.90
55648;DHT22;45266;48.756;9.246;2022-09-29T03:31:47;7.20;99.90
55648;DHT22;45266;48.756;9.246;2022-09-29T03:32:50;7.20;99.90
55648;DHT22;45266;48.756;9.246;2022-09-29T03:33:51;7.20;99.90
55648;DHT22;45266;48.756;9.246;2022-09-29T03:34:53;7.20;99.90
55648;DHT22;45266;48.756;9.246;2022-09-29T03:35:55;7.20;99.90
55648;DHT22;45266;48.756;9.246;2022-09-29T03:36:57;7.20;99.90
55648;DHT22;45266;48.756;9.246;2022-09-29T03:37:59;7.20;99.90
55648;DHT22;45266;48.756;9.246;2022-09-29T03:39:01;7.20;99.90
55648;DHT22;45266;48.756;9.246;2022-09-29T03:40:04;7.10;99.90
55648;DHT22;45266;48.756;9.246;2022-09-29T03:41:06;7.10;99.90
55648;DHT22;45266;48.756;9.246;2022-09-29T03:42:08;7.10;99.90
55648;DHT22;45266;48.756;9.246;2022-09-29T03:43:10;7.10;99.90
55648;DHT22;45266;48.756;9.246;2022-09-29T03:44:11;7.10;99.90
55648;DHT22;45266;48.756;9.246;2022-09-29T03:45:13;7.00;99.90
55648;DHT22;45266;48.756;9.246;2022-09-29T03:46:15;6.90;99.90
55648;DHT22;45266;48.756;9.246;2022-09-29T03:47:17;6.90;99.90
55648;DHT22;45266;48.756;9.246;2022-09-29T03:48:20;6.90;99.90
55648;DHT22;45266;48.756;9.246;2022-09-29T03:49:24;6.90;99.90
55648;DHT22;45266;48.756;9.246;2022-09-29T03:50:26;6.90;99.90
55648;DHT22;45266;48.756;9.246;2022-09-29T03:51:28;6.90;99.90
55648;DHT22;45266;48.756;9.246;2022-09-29T03:52:29;6.80;99.90
55648;DHT22;45266;48.756;9.246;2022-09-29T03:53:33;6.80;99.90
55648;DHT22;45266;48.756;9.246;2022-09-29T03:54:35;6.80;99.90
55648;DHT22;45266;48.756;9.246;2022-09-29T03:55:37;6.70;99.90
55648;DHT22;45266;48.756;9.246;2022-09-29T03:56:39;6.80;99.90
55648;DHT22;45266;48.756;9.246;2022-09-29T03:57:41;6.80;99.90
55648;DHT22;45266;48.756;9.246;2022-09-29T03:58:42;6.70;99.90
55648;DHT22;45266;48.756;9.246;2022-09-29T03:59:44;6.70;99.90
55648;DHT22;45266;48.756;9.246;2022-09-29T04:00:47;6.70;99.90
55648;DHT22;45266;48.756;9.246;2022-09-29T04:01:50;6.60;99.90
55648;DHT22;45266;48.756;9.246;2022-09-29T04:02:54;6.70;99.90
55648;DHT22;45266;48.756;9.246;2022-09-29T04:03:57;6.60;99.90
55648;DHT22;45266;48.756;9.246;2022-09-29T04:04:59;6.60;99.90
55648;DHT22;45266;48.756;9.246;2022-09-29T04:06:00;6.60;99.90
55648;DHT22;45266;48.756;9.246;2022-09-29T04:07:02;6.50;99.90
55648;DHT22;45266;48.756;9.246;2022-09-29T04:08:04;6.50;99.90
55648;DHT22;45266;48.756;9.246;2022-09-29T04:09:06;6.50;99.90
55648;DHT22;45266;48.756;9.246;2022-09-29T04:10:08;6.50;99.90
55648;DHT22;45266;48.756;9.246;2022-09-29T04:11:10;6.50;99.90
55648;DHT22;45266;48.756;9.246;2022-09-29T04:12:11;6.50;99.90
55648;DHT22;45266;48.756;9.246;2022-09-29T04:13:13;6.50;99.90
55648;DHT22;45266;48.756;9.246;2022-09-29T04:14:20;6.50;99.90
55648;DHT22;45266;48.756;9.246;2022-09-29T04:15:22;6.50;99.90
55648;DHT22;45266;48.756;9.246;2022-09-29T04:16:24;6.50;99.90
55648;DHT22;45266;48.756;9.246;2022-09-29T04:17:26;6.50;99.90
55648;DHT22;45266;48.756;9.246;2022-09-29T04:18:28;6.50;99.90
55648;DHT22;45266;48.756;9.246;2022-09-29T04:19:30;6.50;99.90
55648;DHT22;45266;48.756;9.246;2022-09-29T04:20:32;6.40;99.90
55648;DHT22;45266;48.756;9.246;2022-09-29T04:21:34;6.50;99.90
55648;DHT22;45266;48.756;9.246;2022-09-29T04:22:35;6.40;99.90
55648;DHT22;45266;48.756;9.246;2022-09-29T04:23:37;6.30;99.90
55648;DHT22;45266;48.756;9.246;2022-09-29T04:24:39;6.40;99.90
55648;DHT22;45266;48.756;9.246;2022-09-29T04:25:43;6.40;99.90
55648;DHT22;45266;48.756;9.246;2022-09-29T04:26:46;6.40;99.90
55648;DHT22;45266;48.756;9.246;2022-09-29T04:27:47;6.40;99.90
55648;DHT22;45266;48.756;9.246;2022-09-29T04:28:49;6.40;99.90
55648;DHT22;45266;48.756;9.246;2022-09-29T04:29:51;6.40;99.90
55648;DHT22;45266;48.756;9.246;2022-09-29T04:30:52;6.30;99.90
55648;DHT22;45266;48.756;9.246;2022-09-29T04:31:54;6.30;99.90
55648;DHT22;45266;48.756;9.246;2022-09-29T04:32:56;6.30;99.90
55648;DHT22;45266;48.756;9.246;2022-09-29T04:33:58;6.30;99.90
55648;DHT22;45266;48.756;9.246;2022-09-29T04:35:00;6.20;99.90
55648;DHT22;45266;48.756;9.246;2022-09-29T04:36:02;6.20;99.90
55648;DHT22;45266;48.756;9.246;2022-09-29T04:37:06;6.20;99.90
55648;DHT22;45266;48.756;9.246;2022-09-29T04:38:11;6.20;99.90
55648;DHT22;45266;48.756;9.246;2022-09-29T04:39:13;6.20;99.90
55648;DHT22;45266;48.756;9.246;2022-09-29T04:40:15;6.20;99.90
55648;DHT22;45266;48.756;9.246;2022-09-29T04:41:18;6.10;99.90
55648;DHT22;45266;48.756;9.246;2022-09-29T04:42:20;6.10;99.90
55648;DHT22;45266;48.756;9.246;2022-09-29T04:43:22;6.10;99.90
55648;DHT22;45266;48.756;9.246;2022-09-29T04:44:23;6.00;99.90
55648;DHT22;45266;48.756;9.246;2022-09-29T04:45:26;6.00;99.90
55648;DHT22;45266;48.756;9.246;2022-09-29T04:46:28;6.00;99.90
55648;DHT22;45266;48.756;9.246;2022-09-29T04:47:30;6.00;99.90
55648;DHT22;45266;48.756;9.246;2022-09-29T04:48:32;6.00;99.90
55648;DHT22;45266;48.756;9.246;2022-09-29T04:49:36;6.00;99.90
55648;DHT22;45266;48.756;9.246;2022-09-29T04:50:38;5.90;99.90
55648;DHT22;45266;48.756;9.246;2022-09-29T04:51:40;6.00;99.90
55648;DHT22;45266;48.756;9.246;2022-09-29T04:52:42;6.00;99.90
55648;DHT22;45266;48.756;9.246;2022-09-29T04:53:44;6.00;99.90
55648;DHT22;45266;48.756;9.246;2022-09-29T04:54:46;6.00;99.90
55648;DHT22;45266;48.756;9.246;2022-09-29T04:55:48;6.00;99.90
55648;DHT22;45266;48.756;9.246;2022-09-29T04:56:50;6.10;99.90
55648;DHT22;45266;48.756;9.246;2022-09-29T04:57:52;6.00;99.90
55648;DHT22;45266;48.756;9.246;2022-09-29T04:58:53;6.00;99.90
55648;DHT22;45266;48.756;9.246;2022-09-29T04:59:55;6.00;99.90
55648;DHT22;45266;48.756;9.246;2022-09-29T05:01:04;6.00;99.90
55648;DHT22;45266;48.756;9.246;2022-09-29T05:02:06;6.00;99.90
55648;DHT22;45266;48.756;9.246;2022-09-29T05:03:08;5.90;99.90
55648;DHT22;45266;48.756;9.246;2022-09-29T05:04:10;6.00;99.90
55648;DHT22;45266;48.756;9.246;2022-09-29T05:05:14;6.00;99.90
55648;DHT22;45266;48.756;9.246;2022-09-29T05:06:15;6.00;99.90
55648;DHT22;45266;48.756;9.246;2022-09-29T05:07:17;6.00;99.90
55648;DHT22;45266;48.756;9.246;2022-09-29T05:08:19;6.00;99.90
55648;DHT22;45266;48.756;9.246;2022-09-29T05:09:21;6.00;99.90
55648;DHT22;45266;48.756;9.246;2022-09-29T05:10:25;6.00;99.90
55648;DHT22;45266;48.756;9.246;2022-09-29T05:11:27;6.00;99.90
55648;DHT22;45266;48.756;9.246;2022-09-29T05:12:29;5.90;99.90
55648;DHT22;45266;48.756;9.246;2022-09-29T05:13:31;5.90;99.90
55648;DHT22;45266;48.756;9.246;2022-09-29T05:14:33;5.80;99.90
55648;DHT22;45266;48.756;9.246;2022-09-29T05:15:35;5.80;99.90
55648;DHT22;45266;48.756;9.246;2022-09-29T05:16:37;5.80;99.90
55648;DHT22;45266;48.756;9.246;2022-09-29T05:17:38;5.80;99.90
55648;DHT22;45266;48.756;9.246;2022-09-29T05:18:40;5.80;99.90
55648;DHT22;45266;48.756;9.246;2022-09-29T05:19:42;5.80;99.90
55648;DHT22;45266;48.756;9.246;2022-09-29T05:20:44;5.80;99.90
55648;DHT22;45266;48.756;9.246;2022-09-29T05:22:05;5.80;99.90
55648;DHT22;45266;48.756;9.246;2022-09-29T05:23:07;5.80;99.90
55648;DHT22;45266;48.756;9.246;2022-09-29T05:24:11;5.80;99.90
55648;DHT22;45266;48.756;9.246;2022-09-29T05:25:12;5.80;99.90
55648;DHT22;45266;48.756;9.246;2022-09-29T05:26:14;5.80;99.90
55648;DHT22;45266;48.756;9.246;2022-09-29T05:27:16;5.80;99.90
55648;DHT22;45266;48.756;9.246;2022-09-29T05:28:18;5.80;99.90
55648;DHT22;45266;48.756;9.246;2022-09-29T05:29:20;5.70;99.90
55648;DHT22;45266;48.756;9.246;2022-09-29T05:30:22;5.70;99.90
55648;DHT22;45266;48.756;9.246;2022-09-29T05:31:23;5.70;99.90
55648;DHT22;45266;48.756;9.246;2022-09-29T05:32:25;5.70;99.90
55648;DHT22;45266;48.756;9.246;2022-09-29T05:33:27;5.70;99.90
55648;DHT22;45266;48.756;9.246;2022-09-29T05:34:29;5.60;99.90
55648;DHT22;45266;48.756;9.246;2022-09-29T05:35:31;5.70;99.90
55648;DHT22;45266;48.756;9.246;2022-09-29T05:36:32;5.70;99.90
55648;DHT22;45266;48.756;9.246;2022-09-29T05:37:34;5.70;99.90
55648;DHT22;45266;48.756;9.246;2022-09-29T05:38:37;5.70;99.90
55648;DHT22;45266;48.756;9.246;2022-09-29T05:39:39;5.70;99.90
55648;DHT22;45266;48.756;9.246;2022-09-29T05:40:42;5.80;99.90
55648;DHT22;45266;48.756;9.246;2022-09-29T05:41:44;5.80;99.90
55648;DHT22;45266;48.756;9.246;2022-09-29T05:42:45;5.80;99.90
55648;DHT22;45266;48.756;9.246;2022-09-29T05:43:48;5.80;99.90
55648;DHT22;45266;48.756;9.246;2022-09-29T05:44:50;5.80;99.90
55648;DHT22;45266;48.756;9.246;2022-09-29T05:45:52;5.80;99.90
55648;DHT22;45266;48.756;9.246;2022-09-29T05:46:59;5.80;99.90
55648;DHT22;45266;48.756;9.246;2022-09-29T05:48:01;5.80;99.90
55648;DHT22;45266;48.756;9.246;2022-09-29T05:49:03;5.80;99.90
55648;DHT22;45266;48.756;9.246;2022-09-29T05:50:05;5.80;99.90
55648;DHT22;45266;48.756;9.246;2022-09-29T05:51:12;5.80;99.90
55648;DHT22;45266;48.756;9.246;2022-09-29T05:52:14;5.80;99.90
55648;DHT22;45266;48.756;9.246;2022-09-29T05:53:16;5.90;99.90
55648;DHT22;45266;48.756;9.246;2022-09-29T05:54:17;5.90;99.90
55648;DHT22;45266;48.756;9.246;2022-09-29T05:55:19;5.90;99.90
55648;DHT22;45266;48.756;9.246;2022-09-29T05:56:23;5.90;99.90
55648;DHT22;45266;48.756;9.246;2022-09-29T05:57:25;6.00;99.90
55648;DHT22;45266;48.756;9.246;2022-09-29T05:58:26;6.00;99.90
55648;DHT22;45266;48.756;9.246;2022-09-29T05:59:28;6.00;99.90
55648;DHT22;45266;48.756;9.246;2022-09-29T06:00:30;6.10;99.90
55648;DHT22;45266;48.756;9.246;2022-09-29T06:01:32;6.10;99.90
55648;DHT22;45266;48.756;9.246;2022-09-29T06:02:34;6.20;99.90
55648;DHT22;45266;48.756;9.246;2022-09-29T06:03:36;6.10;99.90
55648;DHT22;45266;48.756;9.246;2022-09-29T06:04:38;6.10;99.90
55648;DHT22;45266;48.756;9.246;2022-09-29T06:05:41;6.10;99.90
55648;DHT22;45266;48.756;9.246;2022-09-29T06:06:43;6.10;99.90
55648;DHT22;45266;48.756;9.246;2022-09-29T06:07:45;6.10;99.90
55648;DHT22;45266;48.756;9.246;2022-09-29T06:08:47;6.10;99.90
55648;DHT22;45266;48.756;9.246;2022-09-29T06:09:49;6.10;99.90
55648;DHT22;45266;48.756;9.246;2022-09-29T06:10:51;6.20;99.90
55648;DHT22;45266;48.756;9.246;2022-09-29T06:11:53;6.20;99.90
55648;DHT22;45266;48.756;9.246;2022-09-29T06:12:54;6.20;99.90
55648;DHT22;45266;48.756;9.246;2022-09-29T06:13:57;6.20;99.90
55648;DHT22;45266;48.756;9.246;2022-09-29T06:14:59;6.20;99.90
55648;DHT22;45266;48.756;9.246;2022-09-29T06:16:01;6.20;99.90
55648;DHT22;45266;48.756;9.246;2022-09-29T06:17:03;6.20;99.90
55648;DHT22;45266;48.756;9.246;2022-09-29T06:18:05;6.20;99.90
55648;DHT22;45266;48.756;9.246;2022-09-29T06:19:06;6.30;99.90
55648;DHT22;45266;48.756;9.246;2022-09-29T06:20:08;6.30;99.90
55648;DHT22;45266;48.756;9.246;2022-09-29T06:21:13;6.30;99.90
55648;DHT22;45266;48.756;9.246;2022-09-29T06:22:15;6.30;99.90
55648;DHT22;45266;48.756;9.246;2022-09-29T06:23:16;6.40;99.90
55648;DHT22;45266;48.756;9.246;2022-09-29T06:24:18;6.40;99.90
55648;DHT22;45266;48.756;9.246;2022-09-29T06:25:21;6.40;99.90
55648;DHT22;45266;48.756;9.246;2022-09-29T06:26:23;6.40;99.90
55648;DHT22;45266;48.756;9.246;2022-09-29T06:27:25;6.50;99.90
55648;DHT22;45266;48.756;9.246;2022-09-29T06:28:27;6.40;99.90
55648;DHT22;45266;48.756;9.246;2022-09-29T06:29:29;6.50;99.90
55648;DHT22;45266;48.756;9.246;2022-09-29T06:30:31;6.50;99.90
55648;DHT22;45266;48.756;9.246;2022-09-29T06:31:33;6.50;99.90
55648;DHT22;45266;48.756;9.246;2022-09-29T06:32:35;6.50;99.90
55648;DHT22;45266;48.756;9.246;2022-09-29T06:33:38;6.50;99.90
55648;DHT22;45266;48.756;9.246;2022-09-29T06:34:40;6.50;99.90
55648;DHT22;45266;48.756;9.246;2022-09-29T06:37:35;6.60;99.90
55648;DHT22;45266;48.756;9.246;2022-09-29T06:38:37;6.60;99.90
55648;DHT22;45266;48.756;9.246;2022-09-29T06:39:38;6.70;99.90
55648;DHT22;45266;48.756;9.246;2022-09-29T06:40:40;6.70;99.90
55648;DHT22;45266;48.756;9.246;2022-09-29T06:41:43;6.70;99.90
55648;DHT22;45266;48.756;9.246;2022-09-29T06:42:49;6.80;99.90
55648;DHT22;45266;48.756;9.246;2022-09-29T06:43:50;6.80;99.90
55648;DHT22;45266;48.756;9.246;2022-09-29T06:44:52;6.80;99.90
55648;DHT22;45266;48.756;9.246;2022-09-29T06:45:55;6.90;99.90
55648;DHT22;45266;48.756;9.246;2022-09-29T06:46:57;6.90;99.90
55648;DHT22;45266;48.756;9.246;2022-09-29T06:47:59;6.90;99.90
55648;DHT22;45266;48.756;9.246;2022-09-29T06:49:01;6.90;99.90
55648;DHT22;45266;48.756;9.246;2022-09-29T06:50:03;6.90;99.90
55648;DHT22;45266;48.756;9.246;2022-09-29T06:51:18;6.90;99.90
55648;DHT22;45266;48.756;9.246;2022-09-29T06:52:23;7.00;99.90
55648;DHT22;45266;48.756;9.246;2022-09-29T06:53:30;6.90;99.90
55648;DHT22;45266;48.756;9.246;2022-09-29T06:54:39;7.00;99.90
55648;DHT22;45266;48.756;9.246;2022-09-29T06:55:41;7.00;99.90
55648;DHT22;45266;48.756;9.246;2022-09-29T06:56:46;7.00;99.90
55648;DHT22;45266;48.756;9.246;2022-09-29T06:57:48;7.10;99.90
55648;DHT22;45266;48.756;9.246;2022-09-29T06:58:50;7.10;99.90
55648;DHT22;45266;48.756;9.246;2022-09-29T06:59:51;7.10;99.90
55648;DHT22;45266;48.756;9.246;2022-09-29T07:00:53;7.10;99.90
55648;DHT22;45266;48.756;9.246;2022-09-29T07:01:55;7.20;99.90
55648;DHT22;45266;48.756;9.246;2022-09-29T07:02:58;7.30;99.90
55648;DHT22;45266;48.756;9.246;2022-09-29T07:04:00;7.30;99.90
55648;DHT22;45266;48.756;9.246;2022-09-29T07:05:03;7.30;99.90
55648;DHT22;45266;48.756;9.246;2022-09-29T07:06:06;7.30;99.90
55648;DHT22;45266;48.756;9.246;2022-09-29T07:07:20;7.30;99.90
55648;DHT22;45266;48.756;9.246;2022-09-29T07:08:22;7.30;99.90
55648;DHT22;45266;48.756;9.246;2022-09-29T07:09:24;7.40;99.90
55648;DHT22;45266;48.756;9.246;2022-09-29T07:10:25;7.40;99.90
55648;DHT22;45266;48.756;9.246;2022-09-29T07:11:27;7.40;99.90
55648;DHT22;45266;48.756;9.246;2022-09-29T07:12:29;7.50;99.90
55648;DHT22;45266;48.756;9.246;2022-09-29T07:13:31;7.50;99.90
55648;DHT22;45266;48.756;9.246;2022-09-29T07:14:33;7.50;99.90
55648;DHT22;45266;48.756;9.246;2022-09-29T07:15:35;7.60;99.90
55648;DHT22;45266;48.756;9.246;2022-09-29T07:16:38;7.60;99.90
55648;DHT22;45266;48.756;9.246;2022-09-29T07:17:40;7.70;99.90
55648;DHT22;45266;48.756;9.246;2022-09-29T07:18:42;7.70;99.90
55648;DHT22;45266;48.756;9.246;2022-09-29T07:19:45;7.80;99.90
55648;DHT22;45266;48.756;9.246;2022-09-29T07:20:47;7.80;99.90